METAR AND TAF INFORMATION
METAR FOR AGGA
ADDS - METARS form results

(0439 UTC 26 February 2020)
Data provider http://aviationweather.gov/metar/data/
 
Forecast for: AGGA (AUKI , SB)
Text: TAF AGGA 252310Z 2600/2624 18008KT 9999 SCT019 SCT030
Forecast period: 0000 UTC 26 February 2020 to 0000 UTC 27 February 2020
Forecast type: FROM: standard forecast or significant change
Winds: from the S (180 degrees) at 9 MPH (8 knots; 4.1 m/s)
Visibility: 6 or more miles 10+ km)
Ceiling: at least 12,000 feet AGL
Clouds: scattered clouds at 1900 feet AGL
scattered clouds at 3000 feet AGL
Weather: no significant weather forecast for this period
Text: PROB30 INTER 2602/2607 5000 TSSH BKN016 FEW017CB Q 1008 1006 1005 1007
Forecast period: 0200 to 0700 UTC 26 February 2020
Forecast type: TEMPORARY: The following changes expected for less than half the time period
Visibility: 3 miles (5 km)
Ceiling: 1600 feet AGL
Clouds: broken clouds at 1600 feet AGL
few clouds at 1700 feet AGL
Weather: SH TS  (showers, thunderstorm)

 AIRPORT MAP

 RUNWAY INFORMATION
Runway 18 Runway length 3100 ft Runway width 0 ft
Runway elevation 28 ft Runway displaced threshold 0 ft Runway heading 0
Runway 36 Runway length 3100 ft Runway width 0 ft
Runway elevation 29 ft Runway displaced threshold 0 ft Runway heading 0

 AIRPORT FREQUENCIES

 AIRPORT NEAR NAVIGATION AIDS



Powered by Virtual Airlines Manager [v2.6.2]